createdAt,value
2019-02-11T00:00:14.000Z,25
2019-02-11T00:01:14.000Z,25
2019-02-11T00:03:14.000Z,25
2019-02-11T00:04:14.000Z,25
2019-02-11T00:05:14.000Z,25
2019-02-11T00:06:14.000Z,25
2019-02-11T00:07:14.000Z,25
2019-02-11T00:08:14.000Z,25
2019-02-11T00:09:14.000Z,25
2019-02-11T00:10:14.000Z,25
2019-02-11T00:11:14.000Z,25
2019-02-11T00:12:14.000Z,25
2019-02-11T00:13:14.000Z,25
2019-02-11T00:14:14.000Z,25
2019-02-11T00:15:14.000Z,25
2019-02-11T00:16:14.000Z,25
2019-02-11T00:17:14.000Z,25
2019-02-11T00:18:14.000Z,25
2019-02-11T00:20:14.000Z,25
2019-02-11T00:21:14.000Z,25
2019-02-11T00:22:14.000Z,25
2019-02-11T00:23:14.000Z,25
2019-02-11T00:24:14.000Z,25
2019-02-11T00:25:14.000Z,25
2019-02-11T00:26:14.000Z,25
2019-02-11T00:27:14.000Z,25
2019-02-11T00:28:14.000Z,25
2019-02-11T00:29:14.000Z,25
2019-02-11T00:30:14.000Z,25
2019-02-11T00:31:14.000Z,25
2019-02-11T00:32:14.000Z,25
2019-02-11T00:33:14.000Z,25
2019-02-11T00:34:14.000Z,25
2019-02-11T00:35:14.000Z,25
2019-02-11T00:36:14.000Z,25
2019-02-11T00:37:14.000Z,25
2019-02-11T00:38:14.000Z,25
2019-02-11T00:39:14.000Z,25
2019-02-11T00:40:14.000Z,25
2019-02-11T00:41:14.000Z,25
2019-02-11T00:42:14.000Z,25
2019-02-11T00:43:14.000Z,25
2019-02-11T00:44:14.000Z,25
2019-02-11T00:45:14.000Z,25
2019-02-11T00:46:14.000Z,25
2019-02-11T00:48:14.000Z,25
2019-02-11T00:49:14.000Z,25
2019-02-11T00:50:14.000Z,25
2019-02-11T00:51:14.000Z,25
2019-02-11T00:52:14.000Z,25
2019-02-11T00:53:14.000Z,25
2019-02-11T00:54:14.000Z,25
2019-02-11T00:55:14.000Z,25
2019-02-11T00:56:14.000Z,25
2019-02-11T00:57:14.000Z,25
2019-02-11T00:58:14.000Z,25
2019-02-11T00:59:14.000Z,25
2019-02-11T01:00:14.000Z,25
2019-02-11T01:01:14.000Z,25
2019-02-11T01:02:14.000Z,25
2019-02-11T01:03:14.000Z,25
2019-02-11T01:04:14.000Z,25
2019-02-11T01:05:14.000Z,25
2019-02-11T01:06:14.000Z,25
2019-02-11T01:07:14.000Z,25
2019-02-11T01:08:14.000Z,25
2019-02-11T01:09:14.000Z,25
2019-02-11T01:11:14.000Z,25
2019-02-11T01:12:14.000Z,25
2019-02-11T01:13:14.000Z,25
2019-02-11T01:14:14.000Z,25
2019-02-11T01:15:14.000Z,25
2019-02-11T01:16:14.000Z,25
2019-02-11T01:17:14.000Z,25
2019-02-11T01:18:14.000Z,25
2019-02-11T01:19:14.000Z,25
2019-02-11T01:20:14.000Z,25
2019-02-11T01:21:14.000Z,25
2019-02-11T01:22:14.000Z,25
2019-02-11T01:23:14.000Z,25
2019-02-11T01:24:14.000Z,25
2019-02-11T01:25:14.000Z,25
2019-02-11T01:26:14.000Z,25
2019-02-11T01:27:14.000Z,25
2019-02-11T01:28:14.000Z,25
2019-02-11T01:29:14.000Z,25
2019-02-11T01:30:14.000Z,25
2019-02-11T01:31:14.000Z,25
2019-02-11T01:32:14.000Z,25
2019-02-11T01:33:14.000Z,25
2019-02-11T01:35:14.000Z,25
2019-02-11T01:36:14.000Z,25
2019-02-11T01:37:14.000Z,25
2019-02-11T01:38:14.000Z,25
2019-02-11T01:39:14.000Z,25
2019-02-11T01:40:14.000Z,25
2019-02-11T01:41:14.000Z,25
2019-02-11T01:42:14.000Z,25
2019-02-11T01:43:14.000Z,25
2019-02-11T01:44:14.000Z,25
2019-02-11T01:45:14.000Z,25
2019-02-11T01:46:14.000Z,25
2019-02-11T01:47:14.000Z,25
2019-02-11T01:48:14.000Z,25
2019-02-11T01:49:14.000Z,25
2019-02-11T01:50:14.000Z,25
2019-02-11T01:51:14.000Z,25
2019-02-11T01:52:14.000Z,25
2019-02-11T01:54:14.000Z,25
2019-02-11T01:55:14.000Z,25
2019-02-11T01:56:14.000Z,25
2019-02-11T01:57:14.000Z,25
2019-02-11T01:58:14.000Z,25
2019-02-11T01:59:14.000Z,25
2019-02-11T02:00:14.000Z,25
2019-02-11T02:01:14.000Z,25
2019-02-11T02:02:14.000Z,25
2019-02-11T02:04:14.000Z,25
2019-02-11T02:05:14.000Z,25
2019-02-11T02:07:14.000Z,25
2019-02-11T02:08:14.000Z,25
2019-02-11T02:09:14.000Z,25
2019-02-11T02:10:14.000Z,25
2019-02-11T02:12:14.000Z,25
2019-02-11T02:13:14.000Z,25
2019-02-11T02:14:14.000Z,25
2019-02-11T02:16:14.000Z,25
2019-02-11T02:17:14.000Z,25
2019-02-11T02:18:14.000Z,25
2019-02-11T02:19:14.000Z,25
2019-02-11T02:20:14.000Z,25
2019-02-11T02:21:14.000Z,25
2019-02-11T02:22:14.000Z,25
2019-02-11T02:23:14.000Z,25
2019-02-11T02:24:14.000Z,25
2019-02-11T02:25:14.000Z,25
2019-02-11T02:26:14.000Z,25
2019-02-11T02:27:14.000Z,25
2019-02-11T02:28:14.000Z,25
2019-02-11T02:29:14.000Z,25
2019-02-11T02:30:14.000Z,25
2019-02-11T02:32:14.000Z,25
2019-02-11T02:33:14.000Z,25
2019-02-11T02:34:14.000Z,25
2019-02-11T02:35:14.000Z,25
2019-02-11T02:36:14.000Z,25
2019-02-11T02:37:14.000Z,25
2019-02-11T02:38:14.000Z,25
2019-02-11T02:39:14.000Z,25
2019-02-11T02:40:14.000Z,25
2019-02-11T02:41:14.000Z,25
2019-02-11T02:42:14.000Z,25
2019-02-11T02:43:14.000Z,25
2019-02-11T02:44:14.000Z,25
2019-02-11T02:45:14.000Z,25
2019-02-11T02:46:14.000Z,25
2019-02-11T02:47:14.000Z,25
2019-02-11T02:48:14.000Z,25
2019-02-11T02:49:14.000Z,25
2019-02-11T02:50:14.000Z,25
2019-02-11T02:51:14.000Z,25
2019-02-11T02:52:14.000Z,25
2019-02-11T02:53:14.000Z,25
2019-02-11T02:55:14.000Z,25
2019-02-11T02:57:14.000Z,25
2019-02-11T02:58:14.000Z,25
2019-02-11T02:59:14.000Z,25
2019-02-11T03:01:14.000Z,25
2019-02-11T03:02:14.000Z,25
2019-02-11T03:03:14.000Z,25
2019-02-11T03:04:14.000Z,25
2019-02-11T03:05:14.000Z,25
2019-02-11T03:06:14.000Z,25
2019-02-11T03:07:14.000Z,25
2019-02-11T03:08:14.000Z,25
2019-02-11T03:09:14.000Z,25
2019-02-11T03:10:14.000Z,25
2019-02-11T03:11:14.000Z,25
2019-02-11T03:12:14.000Z,25
2019-02-11T03:13:14.000Z,25
2019-02-11T03:14:14.000Z,25
2019-02-11T03:16:14.000Z,25
2019-02-11T03:17:14.000Z,25
2019-02-11T03:18:14.000Z,25
2019-02-11T03:19:14.000Z,25
2019-02-11T03:20:14.000Z,25
2019-02-11T03:21:14.000Z,25
2019-02-11T03:22:14.000Z,25
2019-02-11T03:23:14.000Z,25
2019-02-11T03:24:14.000Z,25
2019-02-11T03:25:14.000Z,25
2019-02-11T03:26:14.000Z,25
2019-02-11T03:27:14.000Z,25
2019-02-11T03:28:14.000Z,25
2019-02-11T03:29:14.000Z,25
2019-02-11T03:30:14.000Z,25
2019-02-11T03:32:14.000Z,25
2019-02-11T03:33:14.000Z,25
2019-02-11T03:34:14.000Z,25
2019-02-11T03:35:14.000Z,25
2019-02-11T03:36:14.000Z,25
2019-02-11T03:37:14.000Z,25
2019-02-11T03:39:13.000Z,25
2019-02-11T03:40:13.000Z,25
2019-02-11T03:41:13.000Z,25
2019-02-11T03:42:13.000Z,25
2019-02-11T03:43:13.000Z,25
2019-02-11T03:44:13.000Z,25
2019-02-11T03:46:13.000Z,25
2019-02-11T03:48:13.000Z,25
2019-02-11T03:49:13.000Z,25
2019-02-11T03:50:13.000Z,25
2019-02-11T03:51:13.000Z,25
2019-02-11T03:52:13.000Z,25
2019-02-11T03:53:13.000Z,25
2019-02-11T03:54:13.000Z,25
2019-02-11T03:55:13.000Z,25
2019-02-11T03:56:13.000Z,25
2019-02-11T03:57:13.000Z,25
2019-02-11T03:58:13.000Z,25
2019-02-11T04:00:13.000Z,25
2019-02-11T04:01:13.000Z,25
2019-02-11T04:02:13.000Z,25
2019-02-11T04:04:13.000Z,25
2019-02-11T04:05:13.000Z,25
2019-02-11T04:06:13.000Z,25
2019-02-11T04:07:13.000Z,25
2019-02-11T04:08:13.000Z,25
2019-02-11T04:09:13.000Z,25
2019-02-11T04:10:13.000Z,25
2019-02-11T04:11:13.000Z,25
2019-02-11T04:12:13.000Z,25
2019-02-11T04:13:13.000Z,25
2019-02-11T04:14:13.000Z,25
2019-02-11T04:16:13.000Z,25
2019-02-11T04:17:13.000Z,25
2019-02-11T04:18:13.000Z,25
2019-02-11T04:19:13.000Z,25
2019-02-11T04:20:13.000Z,25
2019-02-11T04:21:13.000Z,25
2019-02-11T04:22:13.000Z,25
2019-02-11T04:23:13.000Z,25
2019-02-11T04:24:13.000Z,25
2019-02-11T04:25:13.000Z,25
2019-02-11T04:26:13.000Z,25
2019-02-11T04:27:13.000Z,25
2019-02-11T04:28:13.000Z,25
2019-02-11T04:29:13.000Z,25
2019-02-11T04:30:13.000Z,25
2019-02-11T04:31:13.000Z,25
2019-02-11T04:32:13.000Z,25
2019-02-11T04:33:13.000Z,25
2019-02-11T04:34:13.000Z,25
2019-02-11T04:35:13.000Z,25
2019-02-11T04:36:13.000Z,25
2019-02-11T04:37:13.000Z,25
2019-02-11T04:38:13.000Z,25
2019-02-11T04:39:13.000Z,25
2019-02-11T04:40:13.000Z,25
2019-02-11T04:41:13.000Z,25
2019-02-11T04:43:13.000Z,25
2019-02-11T04:44:13.000Z,25
2019-02-11T04:45:13.000Z,25
2019-02-11T04:46:13.000Z,25
2019-02-11T04:47:13.000Z,25
2019-02-11T04:48:13.000Z,25
2019-02-11T04:49:13.000Z,25
2019-02-11T04:50:13.000Z,25
2019-02-11T04:51:13.000Z,26
2019-02-11T04:52:13.000Z,27
2019-02-11T04:53:13.000Z,27
2019-02-11T04:54:13.000Z,27
2019-02-11T04:55:13.000Z,28
2019-02-11T04:56:13.000Z,28
2019-02-11T04:57:13.000Z,28
2019-02-11T04:58:13.000Z,29
2019-02-11T04:59:13.000Z,29
2019-02-11T05:00:13.000Z,29
2019-02-11T05:01:13.000Z,29
2019-02-11T05:02:13.000Z,29
2019-02-11T05:03:13.000Z,30
2019-02-11T05:04:13.000Z,30
2019-02-11T05:05:13.000Z,30
2019-02-11T05:06:13.000Z,30
2019-02-11T05:08:13.000Z,30
2019-02-11T05:10:13.000Z,30
2019-02-11T05:11:13.000Z,30
2019-02-11T05:12:13.000Z,30
2019-02-11T05:13:13.000Z,30
2019-02-11T05:14:13.000Z,30
2019-02-11T05:15:13.000Z,30
2019-02-11T05:16:13.000Z,30
2019-02-11T05:17:13.000Z,30
2019-02-11T05:18:13.000Z,30
2019-02-11T05:19:13.000Z,30
2019-02-11T05:20:13.000Z,30
2019-02-11T05:22:13.000Z,30
2019-02-11T05:23:13.000Z,30
2019-02-11T05:24:13.000Z,30
2019-02-11T05:25:13.000Z,30
2019-02-11T05:26:13.000Z,30
2019-02-11T05:27:13.000Z,29
2019-02-11T05:28:13.000Z,29
2019-02-11T05:29:13.000Z,29
2019-02-11T05:30:13.000Z,29
2019-02-11T05:31:13.000Z,29
2019-02-11T05:32:13.000Z,29
2019-02-11T05:33:13.000Z,29
2019-02-11T05:35:13.000Z,29
2019-02-11T05:36:13.000Z,29
2019-02-11T05:37:13.000Z,29
2019-02-11T05:38:13.000Z,29
2019-02-11T05:39:13.000Z,29
2019-02-11T05:40:13.000Z,29
2019-02-11T05:41:13.000Z,29
2019-02-11T05:42:13.000Z,29
2019-02-11T05:43:13.000Z,29
2019-02-11T05:44:13.000Z,29
2019-02-11T05:45:13.000Z,29
2019-02-11T05:46:13.000Z,29
2019-02-11T05:47:14.000Z,29
2019-02-11T05:48:14.000Z,29
2019-02-11T05:49:14.000Z,29
2019-02-11T05:50:14.000Z,29
2019-02-11T05:51:14.000Z,29
2019-02-11T05:52:14.000Z,29
2019-02-11T05:53:14.000Z,29
2019-02-11T05:54:14.000Z,29
2019-02-11T05:56:14.000Z,28
2019-02-11T05:57:14.000Z,28
2019-02-11T05:58:14.000Z,28
2019-02-11T05:59:14.000Z,28
2019-02-11T06:00:14.000Z,28
2019-02-11T06:01:14.000Z,28
2019-02-11T06:02:14.000Z,28
2019-02-11T06:03:14.000Z,28
2019-02-11T06:05:14.000Z,28
2019-02-11T06:07:14.000Z,28
2019-02-11T06:08:14.000Z,28
2019-02-11T06:09:14.000Z,27
2019-02-11T06:10:14.000Z,27
2019-02-11T06:11:14.000Z,27
2019-02-11T06:12:14.000Z,27
2019-02-11T06:13:14.000Z,27
2019-02-11T06:14:14.000Z,27
2019-02-11T06:15:14.000Z,27
2019-02-11T06:16:14.000Z,27
2019-02-11T06:17:14.000Z,27
2019-02-11T06:18:14.000Z,27
2019-02-11T06:19:14.000Z,27
2019-02-11T06:20:14.000Z,27
2019-02-11T06:21:14.000Z,27
2019-02-11T06:22:14.000Z,27
2019-02-11T06:23:14.000Z,27
2019-02-11T06:24:14.000Z,27
2019-02-11T06:25:14.000Z,27
2019-02-11T06:26:14.000Z,27
2019-02-11T06:27:14.000Z,27
2019-02-11T06:28:14.000Z,27
2019-02-11T06:29:14.000Z,27
2019-02-11T06:30:14.000Z,27
2019-02-11T06:31:14.000Z,27
2019-02-11T06:32:14.000Z,27
2019-02-11T06:33:14.000Z,26
2019-02-11T06:34:14.000Z,26
2019-02-11T06:36:14.000Z,26
2019-02-11T06:37:14.000Z,26
2019-02-11T06:38:14.000Z,26
2019-02-11T06:39:14.000Z,26
2019-02-11T06:40:14.000Z,26
2019-02-11T06:41:14.000Z,26
2019-02-11T06:42:14.000Z,26
2019-02-11T06:43:14.000Z,26
2019-02-11T06:44:14.000Z,26
2019-02-11T06:45:14.000Z,26
2019-02-11T06:46:14.000Z,26
2019-02-11T06:47:14.000Z,26
2019-02-11T06:48:14.000Z,26
2019-02-11T06:49:14.000Z,26
2019-02-11T06:50:14.000Z,26
2019-02-11T06:51:14.000Z,26
2019-02-11T06:52:14.000Z,26
2019-02-11T06:54:14.000Z,26
2019-02-11T06:55:14.000Z,26
2019-02-11T06:56:14.000Z,26
2019-02-11T06:58:14.000Z,26
2019-02-11T06:59:14.000Z,26
2019-02-11T07:00:14.000Z,26
2019-02-11T07:01:14.000Z,26
2019-02-11T07:02:14.000Z,26
2019-02-11T07:03:14.000Z,26
2019-02-11T07:04:14.000Z,26
2019-02-11T07:06:14.000Z,26
2019-02-11T07:07:14.000Z,26
2019-02-11T07:09:14.000Z,26
2019-02-11T07:10:14.000Z,26
2019-02-11T07:11:14.000Z,26
2019-02-11T07:12:14.000Z,26
2019-02-11T07:13:14.000Z,26
2019-02-11T07:14:14.000Z,26
2019-02-11T07:15:14.000Z,26
2019-02-11T07:16:14.000Z,26
2019-02-11T07:17:14.000Z,26
2019-02-11T07:18:14.000Z,26
2019-02-11T07:19:14.000Z,26
2019-02-11T07:20:14.000Z,26
2019-02-11T07:21:14.000Z,26
2019-02-11T07:22:14.000Z,26
2019-02-11T07:23:14.000Z,26
2019-02-11T07:24:14.000Z,26
2019-02-11T07:25:14.000Z,26
2019-02-11T07:26:14.000Z,26
2019-02-11T07:27:14.000Z,26
2019-02-11T07:28:14.000Z,26
2019-02-11T07:29:14.000Z,26
2019-02-11T07:30:14.000Z,26
2019-02-11T07:31:14.000Z,26
2019-02-11T07:32:14.000Z,26
2019-02-11T07:33:14.000Z,26
2019-02-11T07:34:14.000Z,26
2019-02-11T07:35:14.000Z,26
2019-02-11T07:36:14.000Z,26
2019-02-11T07:37:14.000Z,26
2019-02-11T07:38:14.000Z,26
2019-02-11T07:40:14.000Z,27
2019-02-11T07:41:14.000Z,27
2019-02-11T07:42:14.000Z,27
2019-02-11T07:43:14.000Z,27
2019-02-11T07:44:14.000Z,27
2019-02-11T07:45:14.000Z,27
2019-02-11T07:46:14.000Z,27
2019-02-11T07:47:14.000Z,27
2019-02-11T07:49:14.000Z,27
2019-02-11T07:50:14.000Z,27
2019-02-11T07:51:14.000Z,27
2019-02-11T07:52:14.000Z,27
2019-02-11T07:53:14.000Z,27
2019-02-11T07:54:14.000Z,27
2019-02-11T07:55:14.000Z,27
2019-02-11T07:56:14.000Z,27
2019-02-11T07:57:14.000Z,27
2019-02-11T07:58:14.000Z,27
2019-02-11T07:59:14.000Z,27
2019-02-11T08:00:14.000Z,27
2019-02-11T08:01:14.000Z,27
2019-02-11T08:02:14.000Z,27
2019-02-11T08:03:14.000Z,27
2019-02-11T08:04:14.000Z,27
2019-02-11T08:05:14.000Z,27
2019-02-11T08:06:14.000Z,27
2019-02-11T08:07:14.000Z,27
2019-02-11T08:08:14.000Z,27
2019-02-11T08:10:14.000Z,26
2019-02-11T08:11:14.000Z,26
2019-02-11T08:12:14.000Z,26
2019-02-11T08:13:14.000Z,26
2019-02-11T08:14:14.000Z,26
2019-02-11T08:15:14.000Z,26
2019-02-11T08:17:14.000Z,26
2019-02-11T08:18:14.000Z,26
2019-02-11T08:19:14.000Z,26
2019-02-11T08:21:14.000Z,26
2019-02-11T08:22:14.000Z,26
2019-02-11T08:23:14.000Z,26
2019-02-11T08:24:14.000Z,26
2019-02-11T08:25:14.000Z,26
2019-02-11T08:26:14.000Z,26
2019-02-11T08:27:14.000Z,26
2019-02-11T08:29:14.000Z,26
2019-02-11T08:30:14.000Z,26
2019-02-11T08:31:14.000Z,26
2019-02-11T08:32:14.000Z,26
2019-02-11T08:33:14.000Z,26
2019-02-11T08:34:14.000Z,26
2019-02-11T08:35:14.000Z,26
2019-02-11T08:36:14.000Z,26
2019-02-11T08:37:14.000Z,26
2019-02-11T08:38:14.000Z,26
2019-02-11T08:39:14.000Z,26
2019-02-11T08:40:14.000Z,26
2019-02-11T08:41:14.000Z,26
2019-02-11T08:42:14.000Z,26
2019-02-11T08:43:14.000Z,26
2019-02-11T08:45:14.000Z,26
2019-02-11T08:46:14.000Z,26
2019-02-11T08:47:14.000Z,26
2019-02-11T08:48:14.000Z,26
2019-02-11T08:49:14.000Z,25
2019-02-11T08:50:14.000Z,25
2019-02-11T08:51:14.000Z,25
2019-02-11T08:52:14.000Z,25
2019-02-11T08:53:14.000Z,25
2019-02-11T08:54:14.000Z,25
2019-02-11T08:55:14.000Z,25
2019-02-11T08:56:14.000Z,25
2019-02-11T08:57:14.000Z,25
2019-02-11T08:58:14.000Z,25
2019-02-11T09:00:14.000Z,25
2019-02-11T09:01:14.000Z,25
2019-02-11T09:02:14.000Z,25
2019-02-11T09:03:14.000Z,25
2019-02-11T09:04:14.000Z,25
2019-02-11T09:06:14.000Z,25
2019-02-11T09:07:14.000Z,25
2019-02-11T09:08:14.000Z,25
2019-02-11T09:09:14.000Z,25
2019-02-11T09:10:14.000Z,25
2019-02-11T09:12:14.000Z,25
2019-02-11T09:13:14.000Z,25
2019-02-11T09:14:14.000Z,25
2019-02-11T09:15:14.000Z,25
2019-02-11T09:16:14.000Z,25
2019-02-11T09:17:14.000Z,25
2019-02-11T09:18:14.000Z,25
2019-02-11T09:19:14.000Z,25
2019-02-11T09:20:14.000Z,25
2019-02-11T09:21:14.000Z,25
2019-02-11T09:22:14.000Z,25
2019-02-11T09:23:14.000Z,25
2019-02-11T09:24:14.000Z,25
2019-02-11T09:25:14.000Z,25
2019-02-11T09:26:14.000Z,25
2019-02-11T09:28:14.000Z,25
2019-02-11T09:29:14.000Z,25
2019-02-11T09:30:14.000Z,25
2019-02-11T09:31:14.000Z,25
2019-02-11T09:32:14.000Z,25
2019-02-11T09:33:14.000Z,25
2019-02-11T09:34:14.000Z,25
2019-02-11T09:35:14.000Z,25
2019-02-11T09:36:14.000Z,25
2019-02-11T09:37:14.000Z,25
2019-02-11T09:38:14.000Z,25
2019-02-11T09:39:14.000Z,25
2019-02-11T09:41:14.000Z,25
2019-02-11T09:42:14.000Z,25
2019-02-11T09:43:14.000Z,25
2019-02-11T09:44:14.000Z,25
2019-02-11T09:45:14.000Z,25
2019-02-11T09:46:14.000Z,25
2019-02-11T09:47:14.000Z,25
2019-02-11T09:48:14.000Z,25
2019-02-11T09:49:14.000Z,25
2019-02-11T09:50:14.000Z,25
2019-02-11T09:51:14.000Z,25
2019-02-11T09:52:14.000Z,25
2019-02-11T09:53:14.000Z,25
2019-02-11T09:54:14.000Z,25
2019-02-11T09:55:14.000Z,25
2019-02-11T09:56:14.000Z,25
2019-02-11T09:57:14.000Z,25
2019-02-11T09:58:14.000Z,25
2019-02-11T09:59:14.000Z,25
2019-02-11T10:00:14.000Z,25
2019-02-11T10:01:14.000Z,25
2019-02-11T10:02:14.000Z,25
2019-02-11T10:03:13.000Z,25
2019-02-11T10:04:13.000Z,25
2019-02-11T10:05:13.000Z,25
2019-02-11T10:06:13.000Z,25
2019-02-11T10:07:13.000Z,25
2019-02-11T10:08:13.000Z,25
2019-02-11T10:09:13.000Z,25
2019-02-11T10:10:13.000Z,26
2019-02-11T10:11:13.000Z,26
2019-02-11T10:12:13.000Z,26
2019-02-11T10:13:13.000Z,26
2019-02-11T10:14:13.000Z,26
2019-02-11T10:15:13.000Z,26
2019-02-11T10:16:13.000Z,26
2019-02-11T10:17:13.000Z,26
2019-02-11T10:18:13.000Z,26
2019-02-11T10:19:13.000Z,26
2019-02-11T10:21:13.000Z,26
2019-02-11T10:22:13.000Z,26
2019-02-11T10:23:13.000Z,26
2019-02-11T10:25:13.000Z,26
2019-02-11T10:26:13.000Z,26
2019-02-11T10:28:13.000Z,26
2019-02-11T10:29:13.000Z,26
2019-02-11T10:30:13.000Z,26
2019-02-11T10:32:13.000Z,26
2019-02-11T10:33:13.000Z,26
2019-02-11T10:34:13.000Z,26
2019-02-11T10:35:13.000Z,26
2019-02-11T10:36:13.000Z,26
2019-02-11T10:37:13.000Z,26
2019-02-11T10:38:13.000Z,26
2019-02-11T10:39:13.000Z,26
2019-02-11T10:40:13.000Z,26
2019-02-11T10:42:13.000Z,26
2019-02-11T10:43:13.000Z,26
2019-02-11T10:44:13.000Z,26
2019-02-11T10:45:13.000Z,26
2019-02-11T10:46:13.000Z,26
2019-02-11T10:47:13.000Z,26
2019-02-11T10:48:13.000Z,26
2019-02-11T10:49:13.000Z,26
2019-02-11T10:50:13.000Z,26
2019-02-11T10:52:13.000Z,26
2019-02-11T10:53:13.000Z,26
2019-02-11T10:54:13.000Z,26
2019-02-11T10:55:13.000Z,26
2019-02-11T10:56:13.000Z,25
2019-02-11T10:57:13.000Z,25
2019-02-11T10:58:13.000Z,25
2019-02-11T10:59:13.000Z,25
2019-02-11T11:00:13.000Z,25
2019-02-11T11:01:13.000Z,25
2019-02-11T11:03:13.000Z,25
2019-02-11T11:04:13.000Z,25
2019-02-11T11:05:13.000Z,25
2019-02-11T11:07:13.000Z,25
2019-02-11T11:08:14.000Z,25
2019-02-11T11:10:14.000Z,25
2019-02-11T11:11:14.000Z,25
2019-02-11T11:12:14.000Z,25
2019-02-11T11:13:14.000Z,25
2019-02-11T11:14:14.000Z,25
2019-02-11T11:15:14.000Z,25
2019-02-11T11:16:14.000Z,25
2019-02-11T11:18:14.000Z,25
2019-02-11T11:20:14.000Z,25
2019-02-11T11:21:14.000Z,25
2019-02-11T11:22:14.000Z,25
2019-02-11T11:23:14.000Z,25
2019-02-11T11:24:14.000Z,25
2019-02-11T11:26:14.000Z,25
2019-02-11T11:27:14.000Z,25
2019-02-11T11:28:14.000Z,25
2019-02-11T11:29:14.000Z,25
2019-02-11T11:30:14.000Z,25
2019-02-11T11:32:14.000Z,25
2019-02-11T11:33:14.000Z,25
2019-02-11T11:34:14.000Z,25
2019-02-11T11:35:14.000Z,25
2019-02-11T11:36:14.000Z,25
2019-02-11T11:37:14.000Z,25
2019-02-11T11:38:14.000Z,25
2019-02-11T11:39:14.000Z,25
2019-02-11T11:40:14.000Z,25
2019-02-11T11:41:14.000Z,25
2019-02-11T11:42:14.000Z,25
2019-02-11T11:43:14.000Z,25
2019-02-11T11:44:14.000Z,25
2019-02-11T11:45:14.000Z,25
2019-02-11T11:46:14.000Z,25
2019-02-11T11:48:14.000Z,25
2019-02-11T11:49:14.000Z,25
2019-02-11T11:51:14.000Z,25
2019-02-11T11:52:14.000Z,25
2019-02-11T11:54:14.000Z,25
2019-02-11T11:55:14.000Z,25
2019-02-11T11:56:14.000Z,25
2019-02-11T11:58:14.000Z,24
2019-02-11T11:59:14.000Z,24
2019-02-11T12:00:14.000Z,24
2019-02-11T12:01:14.000Z,24
2019-02-11T12:02:14.000Z,24
2019-02-11T12:03:14.000Z,24
2019-02-11T12:04:14.000Z,23
2019-02-11T12:05:14.000Z,23
2019-02-11T12:07:14.000Z,23
2019-02-11T12:08:14.000Z,22
2019-02-11T12:09:14.000Z,22
2019-02-11T12:10:14.000Z,22
2019-02-11T12:11:14.000Z,22
2019-02-11T12:12:14.000Z,22
2019-02-11T12:13:14.000Z,22
2019-02-11T12:14:14.000Z,22
2019-02-11T12:15:14.000Z,22
2019-02-11T12:16:14.000Z,22
2019-02-11T12:17:14.000Z,22
2019-02-11T12:18:14.000Z,22
2019-02-11T12:19:14.000Z,22
2019-02-11T12:20:14.000Z,22
2019-02-11T12:21:14.000Z,22
2019-02-11T12:22:14.000Z,21
2019-02-11T12:23:14.000Z,21
2019-02-11T12:24:14.000Z,21
2019-02-11T12:25:14.000Z,21
2019-02-11T12:26:14.000Z,21
2019-02-11T12:27:14.000Z,21
2019-02-11T12:28:14.000Z,21
2019-02-11T12:29:14.000Z,21
2019-02-11T12:30:14.000Z,21
2019-02-11T12:31:14.000Z,22
2019-02-11T12:32:14.000Z,22
2019-02-11T12:33:14.000Z,22
2019-02-11T12:34:14.000Z,22
2019-02-11T12:35:14.000Z,22
2019-02-11T12:36:14.000Z,22
2019-02-11T12:37:14.000Z,23
2019-02-11T12:38:14.000Z,23
2019-02-11T12:39:14.000Z,23
2019-02-11T12:40:14.000Z,23
2019-02-11T12:41:14.000Z,23
2019-02-11T12:42:14.000Z,23
2019-02-11T12:43:14.000Z,23
2019-02-11T12:44:14.000Z,23
2019-02-11T12:45:14.000Z,23
2019-02-11T12:46:14.000Z,23
2019-02-11T12:47:14.000Z,23
2019-02-11T12:48:14.000Z,23
2019-02-11T12:49:14.000Z,23
2019-02-11T12:50:14.000Z,23
2019-02-11T12:51:14.000Z,23
2019-02-11T12:53:14.000Z,23
2019-02-11T12:54:14.000Z,23
2019-02-11T12:55:14.000Z,23
2019-02-11T12:57:14.000Z,23
2019-02-11T12:58:14.000Z,23
2019-02-11T12:59:14.000Z,24
2019-02-11T13:00:14.000Z,24
2019-02-11T13:01:14.000Z,24
2019-02-11T13:02:14.000Z,24
2019-02-11T13:03:14.000Z,24
2019-02-11T13:04:14.000Z,24
2019-02-11T13:05:14.000Z,24
2019-02-11T13:06:14.000Z,24
2019-02-11T13:07:14.000Z,24
2019-02-11T13:08:14.000Z,24
2019-02-11T13:09:14.000Z,24
2019-02-11T13:10:14.000Z,24
2019-02-11T13:11:14.000Z,24
2019-02-11T13:12:14.000Z,24
2019-02-11T13:13:14.000Z,24
2019-02-11T13:14:14.000Z,24
2019-02-11T13:15:14.000Z,24
2019-02-11T13:17:14.000Z,24
2019-02-11T13:18:14.000Z,24
2019-02-11T13:19:14.000Z,24
2019-02-11T13:20:14.000Z,24
2019-02-11T13:22:14.000Z,24
2019-02-11T13:23:14.000Z,24
2019-02-11T13:25:14.000Z,24
2019-02-11T13:27:14.000Z,24
2019-02-11T13:28:14.000Z,24
2019-02-11T13:30:14.000Z,24
2019-02-11T13:31:14.000Z,24
2019-02-11T13:32:14.000Z,24
2019-02-11T13:33:14.000Z,24
2019-02-11T13:34:14.000Z,24
2019-02-11T13:35:14.000Z,24
2019-02-11T13:36:14.000Z,24
2019-02-11T13:37:14.000Z,24
2019-02-11T13:38:14.000Z,24
2019-02-11T13:39:14.000Z,24
2019-02-11T13:40:14.000Z,24
2019-02-11T13:41:14.000Z,24
2019-02-11T13:42:14.000Z,24
2019-02-11T13:44:14.000Z,24
2019-02-11T13:45:14.000Z,24
2019-02-11T13:46:14.000Z,24
2019-02-11T13:47:14.000Z,24
2019-02-11T13:48:14.000Z,24
2019-02-11T13:50:14.000Z,24
2019-02-11T13:51:14.000Z,24
2019-02-11T13:52:14.000Z,24
2019-02-11T13:53:14.000Z,24
2019-02-11T13:54:14.000Z,24
2019-02-11T13:55:14.000Z,24
2019-02-11T13:56:14.000Z,24
2019-02-11T13:57:14.000Z,24
2019-02-11T13:58:14.000Z,24
2019-02-11T13:59:14.000Z,24
2019-02-11T14:00:14.000Z,24
2019-02-11T14:01:14.000Z,24
2019-02-11T14:02:14.000Z,24
2019-02-11T14:03:14.000Z,24
2019-02-11T14:04:14.000Z,24
2019-02-11T14:06:14.000Z,24
2019-02-11T14:07:14.000Z,24
2019-02-11T14:08:14.000Z,24
2019-02-11T14:09:14.000Z,24
2019-02-11T14:10:14.000Z,24
2019-02-11T14:11:14.000Z,24
2019-02-11T14:12:14.000Z,24
2019-02-11T14:13:14.000Z,24
2019-02-11T14:14:14.000Z,24
2019-02-11T14:15:14.000Z,24
2019-02-11T14:16:14.000Z,24
2019-02-11T14:17:14.000Z,24
2019-02-11T14:18:14.000Z,24
2019-02-11T14:19:14.000Z,24
2019-02-11T14:20:14.000Z,24
2019-02-11T14:21:14.000Z,24
2019-02-11T14:22:14.000Z,24
2019-02-11T14:23:14.000Z,24
2019-02-11T14:24:14.000Z,24
2019-02-11T14:26:14.000Z,24
2019-02-11T14:27:14.000Z,23
2019-02-11T14:28:14.000Z,23
2019-02-11T14:29:14.000Z,23
2019-02-11T14:30:14.000Z,23
2019-02-11T14:31:14.000Z,22
2019-02-11T14:32:14.000Z,23
2019-02-11T14:33:14.000Z,23
2019-02-11T14:34:14.000Z,23
2019-02-11T14:35:14.000Z,23
2019-02-11T14:36:14.000Z,22
2019-02-11T14:37:14.000Z,22
2019-02-11T14:38:14.000Z,22
2019-02-11T14:39:14.000Z,22
2019-02-11T14:40:14.000Z,22
2019-02-11T14:41:14.000Z,23
2019-02-11T14:42:14.000Z,23
2019-02-11T14:43:14.000Z,23
2019-02-11T14:44:14.000Z,23
2019-02-11T14:45:14.000Z,23
2019-02-11T14:46:14.000Z,23
2019-02-11T14:47:14.000Z,23
2019-02-11T14:48:14.000Z,23
2019-02-11T14:49:14.000Z,23
2019-02-11T14:50:14.000Z,23
2019-02-11T14:51:14.000Z,23
2019-02-11T14:52:14.000Z,23
2019-02-11T14:53:14.000Z,23
2019-02-11T14:54:14.000Z,23
2019-02-11T14:55:14.000Z,24
2019-02-11T14:56:14.000Z,24
2019-02-11T14:57:14.000Z,24
2019-02-11T14:58:14.000Z,24
2019-02-11T14:59:14.000Z,24
2019-02-11T15:00:14.000Z,24
2019-02-11T15:01:14.000Z,24
2019-02-11T15:02:14.000Z,24
2019-02-11T15:03:14.000Z,24
2019-02-11T15:04:14.000Z,24
2019-02-11T15:06:14.000Z,24
2019-02-11T15:07:14.000Z,24
2019-02-11T15:08:14.000Z,24
2019-02-11T15:09:14.000Z,24
2019-02-11T15:10:14.000Z,24
2019-02-11T15:11:14.000Z,24
2019-02-11T15:12:14.000Z,24
2019-02-11T15:13:14.000Z,24
2019-02-11T15:14:14.000Z,24
2019-02-11T15:16:14.000Z,24
2019-02-11T15:17:14.000Z,24
2019-02-11T15:18:14.000Z,24
2019-02-11T15:19:14.000Z,24
2019-02-11T15:20:14.000Z,24
2019-02-11T15:21:14.000Z,24
2019-02-11T15:22:14.000Z,24
2019-02-11T15:23:14.000Z,24
2019-02-11T15:24:14.000Z,24
2019-02-11T15:25:14.000Z,24
2019-02-11T15:26:14.000Z,24
2019-02-11T15:27:14.000Z,24
2019-02-11T15:28:14.000Z,24
2019-02-11T15:29:14.000Z,24
2019-02-11T15:30:14.000Z,25
2019-02-11T15:31:14.000Z,25
2019-02-11T15:32:14.000Z,25
2019-02-11T15:33:14.000Z,25